Time;durP1;ratioP1;P1;durP2;ratioP2;P2;SDS_P1;SDS_P2;PMS_P1;PMS_P2;Temp;Humidity;BMP_temperature;BMP_pressure;BME280_temperature;BME280_humidity;BME280_pressure;Samples;Min_cycle;Max_cycle;Signal;HPM_P1;HPM_P2
2023/04/11 00:00:19;;;;;;;8.20;4.00;;;;;;;10.39;58.03;99319.15;78155;1301;3026929;-62
2023/04/11 00:02:46;;;;;;;10.20;4.00;;;;;;;10.37;57.88;99319.66;79383;1298;3013648;-60
2023/04/11 00:05:14;;;;;;;6.20;4.10;;;;;;;10.35;58.40;99324.86;79283;1295;3013093;-62
2023/04/11 00:07:42;;;;;;;9.70;4.20;;;;;;;10.30;58.65;99320.37;78127;1298;3049918;-62
2023/04/11 00:10:09;;;;;;;12.20;4.20;;;;;;;10.31;58.22;99324.19;79314;1298;3014073;-59
2023/04/11 00:12:36;;;;;;;7.30;3.50;;;;;;;10.33;58.54;99323.55;79289;1301;3011349;-62
2023/04/11 00:15:05;;;;;;;7.50;4.70;;;;;;;10.35;58.61;99313.48;78153;1298;3053011;-61
2023/04/11 00:17:36;;;;;;;7.70;4.10;;;;;;;10.29;58.87;99315.39;79316;1296;3011738;-63
2023/04/11 00:20:09;;;;;;;10.00;3.90;;;;;;;10.28;59.14;99313.16;78075;1298;3051401;-62
2023/04/11 00:22:40;;;;;;;8.10;4.20;;;;;;;10.30;58.70;99312.70;78096;1295;3055608;-62
2023/04/11 00:25:07;;;;;;;6.30;4.10;;;;;;;10.20;59.65;99317.66;79559;1295;3012727;-62
2023/04/11 00:27:34;;;;;;;11.20;4.30;;;;;;;10.17;59.71;99317.34;79344;1295;3011931;-60
2023/04/11 00:30:07;;;;;;;10.20;4.30;;;;;;;10.16;59.78;99318.09;78085;1301;3052354;-61
2023/04/11 00:32:33;;;;;;;10.40;4.40;;;;;;;10.07;60.45;99321.63;79414;1298;3012927;-61
2023/04/11 00:35:02;;;;;;;9.80;4.10;;;;;;;10.07;60.47;99322.98;78065;1300;3028580;-60
2023/04/11 00:37:34;;;;;;;8.90;4.60;;;;;;;10.08;60.58;99320.86;79359;1296;3013167;-61
2023/04/11 00:40:06;;;;;;;10.60;4.20;;;;;;;10.04;60.83;99326.38;78161;1298;3058111;-61
2023/04/11 00:42:33;;;;;;;8.50;4.40;;;;;;;10.04;60.59;99326.20;79362;1298;3011857;-59
2023/04/11 00:45:03;;;;;;;8.60;4.20;;;;;;;10.06;60.70;99323.08;78110;1295;3053128;-61
2023/04/11 00:47:31;;;;;;;10.80;4.00;;;;;;;9.98;61.28;99326.94;79468;1300;3013194;-61
2023/04/11 00:49:58;;;;;;;9.60;4.10;;;;;;;9.97;61.33;99322.24;79420;1297;3011529;-61
2023/04/11 00:52:26;;;;;;;9.30;4.40;;;;;;;9.93;61.45;99320.90;78077;1301;3069042;-59
2023/04/11 00:54:52;;;;;;;13.60;4.20;;;;;;;9.95;61.36;99326.05;79414;1296;3021209;-60
2023/04/11 00:57:20;;;;;;;8.20;4.20;;;;;;;9.94;61.48;99321.73;79322;1299;3011657;-59
2023/04/11 00:59:49;;;;;;;9.90;4.40;;;;;;;9.96;61.46;99324.73;78145;1295;3052801;-62
2023/04/11 01:02:17;;;;;;;9.10;4.20;;;;;;;10.01;61.11;99318.67;79269;1301;3013513;-59
2023/04/11 01:04:47;;;;;;;7.40;4.00;;;;;;;9.99;61.85;99316.34;78832;1298;3012908;-62
2023/04/11 01:07:14;;;;;;;7.00;3.80;;;;;;;9.99;61.90;99314.21;79296;1301;3013467;-61
2023/04/11 01:09:41;;;;;;;9.20;4.70;;;;;;;10.02;61.77;99311.98;79177;1296;3011610;-62
2023/04/11 01:12:10;;;;;;;6.70;3.70;;;;;;;10.05;61.27;99306.39;78017;1301;3028449;-61
2023/04/11 01:14:37;;;;;;;8.50;4.20;;;;;;;10.02;61.77;99304.27;79260;1295;3014857;-64
2023/04/11 01:17:03;;;;;;;7.50;3.70;;;;;;;9.97;61.82;99301.23;79450;1294;3013197;-62
2023/04/11 01:19:31;;;;;;;11.30;4.60;;;;;;;9.98;61.80;99303.59;78055;1300;3052222;-62
2023/04/11 01:22:00;;;;;;;9.40;4.20;;;;;;;9.88;62.74;99303.02;79461;1297;3014235;-58
2023/04/11 01:24:27;;;;;;;11.10;4.10;;;;;;;9.92;62.54;99298.20;79332;1295;3011960;-61
2023/04/11 01:27:02;;;;;;;9.30;4.00;;;;;;;9.93;62.30;99298.33;78027;1300;3056531;-63
2023/04/11 01:29:29;;;;;;;7.00;3.90;;;;;;;9.92;62.44;99300.48;79290;1295;3013011;-61
2023/04/11 01:31:55;;;;;;;13.30;4.20;;;;;;;9.88;62.92;99300.37;79336;1295;3012061;-62
2023/04/11 01:34:27;;;;;;;9.70;4.20;;;;;;;9.90;62.90;99299.20;78125;1298;3053336;-62
2023/04/11 01:36:54;;;;;;;8.10;4.00;;;;;;;9.90;63.06;99296.39;79405;1301;3011463;-62
2023/04/11 01:39:23;;;;;;;9.00;4.70;;;;;;;9.90;62.83;99289.77;78825;1298;3011636;-62
2023/04/11 01:41:50;;;;;;;8.30;4.00;;;;;;;9.87;62.90;99285.04;79172;1295;3021100;-59
2023/04/11 01:44:21;;;;;;;8.90;4.00;;;;;;;9.91;62.91;99283.04;78730;1296;3011530;-62
2023/04/11 01:46:48;;;;;;;7.80;4.40;;;;;;;9.86;63.13;99285.64;79338;1294;3013240;-66
2023/04/11 01:49:17;;;;;;;11.90;4.30;;;;;;;9.87;63.12;99279.63;79347;1298;3013466;-61
2023/04/11 01:51:46;;;;;;;7.10;4.10;;;;;;;9.92;62.72;99280.02;78265;1300;3052433;-62
2023/04/11 01:54:12;;;;;;;8.40;3.90;;;;;;;9.94;62.71;99283.77;79238;1299;3013386;-60
2023/04/11 01:56:39;;;;;;;10.50;4.60;;;;;;;9.96;62.39;99279.05;79322;1295;3012251;-63
2023/04/11 01:59:07;;;;;;;6.70;3.90;;;;;;;9.94;62.69;99280.98;78226;1297;3056111;-61
2023/04/11 02:01:35;;;;;;;10.00;4.50;;;;;;;9.90;63.07;99280.12;79411;1296;3018643;-60
2023/04/11 02:04:01;;;;;;;8.50;4.50;;;;;;;9.92;62.86;99279.67;79351;1295;3011596;-62
2023/04/11 02:06:31;;;;;;;8.20;4.50;;;;;;;9.91;63.07;99278.71;78220;1298;3053829;-60
2023/04/11 02:08:57;;;;;;;13.60;4.30;;;;;;;9.83;63.42;99279.65;79455;1295;3013796;-61
2023/04/11 02:11:24;;;;;;;7.00;4.10;;;;;;;9.86;63.18;99282.83;79385;1295;3012331;-60
2023/04/11 02:13:52;;;;;;;10.00;4.10;;;;;;;9.95;62.79;99274.42;78084;1296;3026643;-62
2023/04/11 02:16:24;;;;;;;12.50;4.40;;;;;;;9.96;63.02;99274.02;79278;1295;3011836;-59
2023/04/11 02:18:55;;;;;;;8.60;4.30;;;;;;;9.92;63.06;99271.11;78178;1296;3053726;-60
2023/04/11 02:21:22;;;;;;;11.20;4.10;;;;;;;9.93;63.09;99271.18;79291;1302;3013034;-61
2023/04/11 02:23:55;;;;;;;10.00;4.40;;;;;;;9.93;63.12;99271.73;78059;1301;3053342;-60
2023/04/11 02:26:25;;;;;;;9.30;4.20;;;;;;;9.95;63.26;99274.59;79378;1296;3013372;-61
2023/04/11 02:28:53;;;;;;;8.40;4.10;;;;;;;9.96;63.26;99272.45;78149;1299;3058254;-59
2023/04/11 02:31:20;;;;;;;10.50;4.50;;;;;;;10.03;62.90;99271.80;79478;1295;3013666;-61
2023/04/11 02:33:47;;;;;;;7.80;4.40;;;;;;;10.04;62.89;99272.46;79284;1296;3011813;-61
2023/04/11 02:36:15;;;;;;;8.10;4.00;;;;;;;10.03;62.77;99273.42;78121;1301;3053327;-60
2023/04/11 02:38:43;;;;;;;9.10;3.80;;;;;;;9.99;63.12;99281.69;79403;1298;3013045;-62
2023/04/11 02:41:10;;;;;;;8.30;3.50;;;;;;;9.97;63.32;99282.85;79325;1296;3011824;-58
2023/04/11 02:43:53;;;;;;;7.60;4.50;;;;;;;9.98;63.36;99281.59;78094;1298;3057049;-61
2023/04/11 02:46:21;;;;;;;13.30;5.00;;;;;;;10.00;63.40;99277.74;79426;1294;3013302;-62
2023/04/11 02:48:48;;;;;;;11.80;4.00;;;;;;;9.98;63.50;99275.26;79415;1296;3011911;-59
2023/04/11 02:51:19;;;;;;;10.50;4.30;;;;;;;10.05;63.16;99267.83;78118;1298;3051259;-61
2023/04/11 02:53:46;;;;;;;8.00;4.30;;;;;;;10.09;63.00;99274.61;79309;1301;3013572;-60
2023/04/11 02:56:18;;;;;;;10.30;3.90;;;;;;;10.12;62.91;99268.48;78027;1295;3051934;-64
2023/04/11 02:58:47;;;;;;;8.70;3.80;;;;;;;10.12;62.95;99268.66;79348;1294;3012990;-62
2023/04/11 03:01:20;;;;;;;8.50;3.80;;;;;;;10.16;62.37;99268.55;78885;1299;3013309;-65
2023/04/11 03:03:55;;;;;;;8.50;3.80;;;;;;;10.17;62.55;99266.62;78720;1295;3013215;-62
2023/04/11 03:06:23;;;;;;;8.30;4.10;;;;;;;10.08;63.26;99261.90;79421;1294;3011529;-60
2023/04/11 03:08:54;;;;;;;10.00;4.10;;;;;;;10.11;63.21;99266.64;77997;1300;3050738;-62
2023/04/11 03:11:22;;;;;;;7.50;4.00;;;;;;;10.08;63.46;99261.73;79397;1298;3012895;-61
2023/04/11 03:13:49;;;;;;;7.20;3.60;;;;;;;10.02;63.74;99267.69;79391;1295;3011840;-60
2023/04/11 03:16:21;;;;;;;8.60;3.80;;;;;;;10.04;63.64;99269.30;78173;1298;3051459;-62
2023/04/11 03:18:48;;;;;;;7.10;3.90;;;;;;;9.97;63.91;99272.18;79342;1295;3012806;-58
2023/04/11 03:21:15;;;;;;;8.10;3.80;;;;;;;10.04;63.48;99270.21;79326;1295;3011681;-58
2023/04/11 03:23:56;;;;;;;7.10;3.70;;;;;;;10.05;63.66;99264.15;78066;1302;3050627;-62
2023/04/11 03:26:25;;;;;;;9.70;4.20;;;;;;;10.06;63.62;99262.88;79369;1301;3014041;-62
2023/04/11 03:28:55;;;;;;;8.40;3.60;;;;;;;10.00;63.59;99260.11;78042;1298;3026507;-61
2023/04/11 03:31:22;;;;;;;9.30;3.90;;;;;;;10.03;63.34;99254.15;79477;1297;3012931;-61
2023/04/11 03:33:49;;;;;;;9.90;4.10;;;;;;;10.03;63.07;99257.27;79293;1299;3011907;-60
2023/04/11 03:36:17;;;;;;;14.20;4.10;;;;;;;10.03;62.96;99258.32;78122;1298;3050298;-59
2023/04/11 03:38:45;;;;;;;8.10;3.80;;;;;;;10.03;63.30;99258.72;79405;1296;3013440;-60
2023/04/11 03:41:11;;;;;;;8.90;4.40;;;;;;;10.05;63.43;99256.66;79466;1299;3012396;-62
2023/04/11 03:43:39;;;;;;;9.30;4.40;;;;;;;10.09;63.03;99257.63;78165;1297;3052937;-63
2023/04/11 03:46:07;;;;;;;9.60;4.20;;;;;;;10.11;63.07;99253.17;79368;1298;3015653;-61
2023/04/11 03:48:42;;;;;;;6.90;4.60;;;;;;;10.03;63.15;99245.18;78141;1298;3056346;-62
2023/04/11 03:51:09;;;;;;;9.90;3.70;;;;;;;9.97;63.34;99245.60;79264;1296;3014136;-62
2023/04/11 03:53:44;;;;;;;7.40;4.30;;;;;;;10.02;63.56;99247.06;78120;1298;3050771;-62
2023/04/11 03:56:41;;;;;;;6.90;3.90;;;;;;;10.01;63.52;99243.77;78077;1300;3053234;-61
2023/04/11 03:59:11;;;;;;;7.60;3.70;;;;;;;9.97;63.83;99248.95;79504;1295;3013659;-60
2023/04/11 04:01:48;;;;;;;10.30;4.00;;;;;;;10.03;63.43;99247.14;78155;1295;3068919;-61
2023/04/11 04:04:15;;;;;;;9.30;4.20;;;;;;;10.05;63.37;99248.23;79363;1296;3012899;-61
2023/04/11 04:06:44;;;;;;;10.30;4.30;;;;;;;10.05;63.43;99245.96;79180;1295;3011910;-61
2023/04/11 04:09:14;;;;;;;10.30;3.60;;;;;;;10.08;63.22;99248.40;78116;1298;3053434;-61
2023/04/11 04:11:50;;;;;;;7.10;3.80;;;;;;;10.12;63.18;99253.41;78894;1298;3011589;-61
2023/04/11 04:14:23;;;;;;;8.80;3.50;;;;;;;10.12;63.21;99251.48;79373;1298;3011609;-62
2023/04/11 04:16:53;;;;;;;7.30;3.80;;;;;;;10.05;63.68;99258.05;78168;1301;3053188;-64
2023/04/11 04:19:20;;;;;;;9.20;3.90;;;;;;;10.08;63.84;99254.70;79640;1298;3012867;-61
2023/04/11 04:21:48;;;;;;;6.50;3.40;;;;;;;10.10;63.68;99249.52;79410;1298;3011651;-61
2023/04/11 04:24:19;;;;;;;7.50;3.70;;;;;;;10.11;63.51;99247.02;78149;1294;3056467;-62
2023/04/11 04:27:12;;;;;;;6.90;3.90;;;;;;;10.01;63.99;99242.91;78181;1295;3049564;-62
2023/04/11 04:29:46;;;;;;;9.80;4.70;;;;;;;10.00;63.99;99255.90;77890;1296;3053305;-64
2023/04/11 04:32:19;;;;;;;8.10;3.90;;;;;;;10.02;64.42;99254.05;79182;1296;3013102;-62
2023/04/11 04:34:53;;;;;;;8.90;3.90;;;;;;;10.06;64.47;99244.16;78077;1301;3052119;-61
2023/04/11 04:37:26;;;;;;;8.50;3.60;;;;;;;10.08;64.27;99238.98;78165;1298;3053510;-61
2023/04/11 04:40:07;;;;;;;12.70;4.00;;;;;;;10.10;64.11;99241.14;78110;1298;3069386;-62
2023/04/11 04:42:40;;;;;;;8.50;3.90;;;;;;;10.05;64.21;99243.49;79308;1296;3011706;-62
2023/04/11 04:45:28;;;;;;;7.40;4.30;;;;;;;10.12;64.12;99240.34;78100;1295;3055920;-61
2023/04/11 04:47:57;;;;;;;6.60;3.60;;;;;;;10.21;63.81;99239.41;79428;1295;3011490;-61
2023/04/11 04:50:26;;;;;;;10.80;4.00;;;;;;;10.23;64.04;99241.20;78827;1300;3013463;-61
2023/04/11 04:52:58;;;;;;;11.30;4.30;;;;;;;10.24;64.11;99241.13;79310;1295;3013591;-60
2023/04/11 04:55:30;;;;;;;7.20;4.10;;;;;;;10.22;64.06;99236.89;78281;1301;3053220;-62
2023/04/11 04:57:57;;;;;;;7.20;3.80;;;;;;;10.20;64.23;99236.65;79550;1298;3013232;-61
2023/04/11 05:00:25;;;;;;;10.40;3.90;;;;;;;10.27;63.98;99234.50;79362;1295;3012956;-61
2023/04/11 05:02:54;;;;;;;8.40;4.20;;;;;;;10.29;63.77;99235.91;78163;1301;3056574;-62
2023/04/11 05:05:22;;;;;;;7.70;4.10;;;;;;;10.31;63.67;99231.40;79593;1299;3011556;-61
2023/04/11 05:07:49;;;;;;;7.90;4.00;;;;;;;10.37;63.42;99226.48;79327;1301;3011822;-60
2023/04/11 05:10:18;;;;;;;7.20;4.00;;;;;;;10.38;63.13;99220.17;78282;1298;3054698;-61
2023/04/11 05:12:45;;;;;;;11.50;3.90;;;;;;;10.33;62.97;99223.41;79206;1301;3013668;-62
2023/04/11 05:15:13;;;;;;;7.60;3.90;;;;;;;10.34;62.78;99220.25;79653;1295;3011919;-62
2023/04/11 05:17:44;;;;;;;7.90;3.60;;;;;;;10.34;62.35;99219.69;78103;1296;3055321;-62
2023/04/11 05:20:12;;;;;;;6.00;3.10;;;;;;;10.37;62.23;99217.39;79383;1295;3013016;-61
2023/04/11 05:22:41;;;;;;;9.10;3.80;;;;;;;10.37;61.81;99213.70;79459;1296;3013247;-60
2023/04/11 05:25:12;;;;;;;10.00;3.70;;;;;;;10.52;61.26;99215.73;78227;1299;3053143;-62
2023/04/11 05:27:40;;;;;;;5.80;3.30;;;;;;;10.55;61.00;99212.77;79436;1301;3013306;-63
2023/04/11 05:30:07;;;;;;;11.80;4.60;;;;;;;10.54;60.77;99211.61;79291;1298;3012328;-63
2023/04/11 05:32:38;;;;;;;8.70;4.20;;;;;;;10.53;60.84;99209.55;77955;1295;3056136;-63
2023/04/11 05:35:05;;;;;;;12.90;3.70;;;;;;;10.57;60.55;99211.22;79364;1296;3012695;-63
2023/04/11 05:37:46;;;;;;;6.00;3.70;;;;;;;10.66;60.36;99210.50;78076;1298;3051113;-60
2023/04/11 05:40:13;;;;;;;6.60;3.60;;;;;;;10.73;60.18;99211.56;79572;1301;3013589;-59
2023/04/11 05:42:41;;;;;;;6.70;3.30;;;;;;;10.77;60.06;99206.44;79404;1298;3011650;-61
2023/04/11 05:45:11;;;;;;;10.10;2.80;;;;;;;10.83;59.79;99204.46;78146;1301;3051156;-62
2023/04/11 05:47:38;;;;;;;5.20;3.50;;;;;;;10.85;59.34;99206.47;79284;1296;3020840;-60
2023/04/11 05:50:06;;;;;;;15.10;4.00;;;;;;;10.78;58.92;99205.47;79284;1298;3011697;-58
2023/04/11 05:52:36;;;;;;;7.20;3.30;;;;;;;10.74;59.05;99204.15;78410;1298;3050094;-59
2023/04/11 05:55:04;;;;;;;8.50;3.70;;;;;;;10.81;58.94;99201.99;79323;1301;3013362;-58
2023/04/11 05:57:42;;;;;;;6.80;3.70;;;;;;;10.81;58.73;99201.82;78267;1296;3068758;-60
2023/04/11 06:00:15;;;;;;;7.00;3.40;;;;;;;10.86;58.73;99196.41;79683;1295;3013713;-58
2023/04/11 06:02:45;;;;;;;8.60;3.30;;;;;;;10.84;58.33;99194.59;78472;1295;3049864;-61
2023/04/11 06:05:20;;;;;;;6.70;3.50;;;;;;;10.78;58.18;99191.30;78902;1295;3012869;-61
2023/04/11 06:07:47;;;;;;;7.90;3.50;;;;;;;10.81;58.27;99183.95;79399;1295;3013088;-61
2023/04/11 06:10:14;;;;;;;8.80;3.50;;;;;;;10.81;58.14;99176.39;79516;1295;3011593;-60
2023/04/11 06:12:42;;;;;;;8.30;3.90;;;;;;;10.80;58.07;99184.33;78157;1298;3053348;-61
2023/04/11 06:15:10;;;;;;;7.60;4.00;;;;;;;10.77;58.14;99177.52;79445;1294;3011479;-61
2023/04/11 06:17:40;;;;;;;8.10;4.00;;;;;;;10.77;58.20;99178.22;78782;1295;3011697;-63
2023/04/11 06:20:09;;;;;;;8.80;3.60;;;;;;;10.72;58.15;99173.98;79414;1299;3012948;-61
2023/04/11 06:22:38;;;;;;;7.30;3.50;;;;;;;10.79;58.12;99168.66;78893;1298;3011837;-60
2023/04/11 06:25:06;;;;;;;10.20;3.70;;;;;;;10.80;57.72;99165.39;79382;1295;3012882;-60
2023/04/11 06:27:34;;;;;;;11.00;3.30;;;;;;;10.86;57.68;99168.55;79454;1296;3011676;-60
2023/04/11 06:30:02;;;;;;;6.50;3.00;;;;;;;10.92;57.36;99166.70;78266;1302;3051969;-60
2023/04/11 06:32:30;;;;;;;6.60;3.30;;;;;;;11.00;57.12;99166.20;79360;1296;3013386;-60
2023/04/11 06:34:57;;;;;;;5.40;3.10;;;;;;;11.05;56.88;99170.73;79304;1295;3011562;-61
2023/04/11 06:37:26;;;;;;;9.30;3.20;;;;;;;11.12;56.88;99171.37;78147;1299;3049922;-62
2023/04/11 06:40:00;;;;;;;8.00;3.20;;;;;;;11.23;56.49;99167.79;79495;1295;3011868;-61
2023/04/11 06:42:28;;;;;;;10.50;3.80;;;;;;;11.30;56.27;99160.54;78147;1299;3048826;-61
2023/04/11 06:44:55;;;;;;;13.00;3.90;;;;;;;11.38;56.09;99163.63;79426;1298;3011681;-61
2023/04/11 06:47:22;;;;;;;6.20;3.20;;;;;;;11.59;56.05;99157.77;79744;1298;3011542;-61
2023/04/11 06:49:50;;;;;;;9.70;3.50;;;;;;;11.79;55.20;99154.81;78241;1295;3052378;-61
2023/04/11 06:52:17;;;;;;;6.70;3.40;;;;;;;11.94;54.89;99155.33;79389;1302;3013611;-61
2023/04/11 06:54:44;;;;;;;6.90;3.40;;;;;;;12.09;54.33;99145.86;79256;1301;3011706;-62
2023/04/11 06:57:12;;;;;;;7.10;3.70;;;;;;;12.23;54.16;99148.91;78159;1299;3028412;-61
2023/04/11 06:59:45;;;;;;;7.50;3.40;;;;;;;12.39;54.06;99145.14;79396;1301;3011782;-60
2023/04/11 07:02:14;;;;;;;6.70;3.30;;;;;;;12.52;53.53;99139.83;78163;1298;3052675;-61
2023/04/11 07:04:41;;;;;;;7.10;3.40;;;;;;;12.52;53.36;99137.34;79397;1298;3014909;-61
2023/04/11 07:07:12;;;;;;;7.80;3.50;;;;;;;12.63;53.16;99136.04;77959;1301;3058277;-66
2023/04/11 07:09:40;;;;;;;6.60;3.20;;;;;;;12.66;52.88;99134.52;79301;1299;3015228;-61
2023/04/11 07:12:06;;;;;;;9.90;3.30;;;;;;;12.79;52.94;99131.80;79264;1301;3011447;-61
2023/04/11 07:14:39;;;;;;;6.10;3.30;;;;;;;12.87;51.91;99131.58;78010;1301;3051784;-60
2023/04/11 07:17:12;;;;;;;9.80;3.50;;;;;;;12.89;52.06;99127.38;79372;1295;3013421;-66
2023/04/11 07:19:39;;;;;;;7.30;3.30;;;;;;;13.01;51.77;99128.59;78154;1301;3069013;-61
2023/04/11 07:22:07;;;;;;;9.70;3.40;;;;;;;13.19;51.67;99127.95;79313;1297;3014743;-61
2023/04/11 07:24:35;;;;;;;7.60;3.20;;;;;;;13.32;51.49;99128.88;79486;1298;3013675;-61
2023/04/11 07:27:05;;;;;;;11.70;4.00;;;;;;;13.31;51.09;99126.65;78384;1296;3053294;-61
2023/04/11 07:29:32;;;;;;;7.70;3.70;;;;;;;13.25;50.52;99123.92;79322;1301;3012885;-61
2023/04/11 07:31:59;;;;;;;9.20;3.50;;;;;;;13.34;49.87;99124.67;79678;1295;3012920;-62
2023/04/11 07:34:27;;;;;;;7.10;3.40;;;;;;;13.55;49.35;99124.86;78205;1296;3068999;-61
2023/04/11 07:36:59;;;;;;;12.30;3.60;;;;;;;13.69;48.91;99118.44;79464;1301;3013744;-62
2023/04/11 07:39:27;;;;;;;17.90;3.40;;;;;;;13.86;48.66;99118.88;78305;1297;3049481;-62
2023/04/11 07:41:56;;;;;;;14.30;3.60;;;;;;;13.94;48.52;99113.34;79362;1301;3013088;-61
2023/04/11 07:44:23;;;;;;;9.50;2.60;;;;;;;13.99;48.04;99112.05;79648;1296;3011790;-61
2023/04/11 07:46:51;;;;;;;9.30;3.30;;;;;;;14.10;47.64;99110.56;78213;1301;3055435;-61
2023/04/11 07:49:17;;;;;;;6.00;2.90;;;;;;;14.15;47.63;99109.52;79520;1296;3013195;-62
2023/04/11 07:51:44;;;;;;;6.50;3.20;;;;;;;14.29;47.26;99100.80;79665;1298;3012974;-63
2023/04/11 07:54:14;;;;;;;10.00;3.30;;;;;;;14.48;47.16;99093.23;78223;1301;3049489;-61
2023/04/11 07:56:42;;;;;;;12.50;3.00;;;;;;;14.49;46.19;99079.04;79507;1296;3013636;-64
2023/04/11 07:59:16;;;;;;;5.40;2.90;;;;;;;14.56;46.33;99084.98;78470;1298;3049815;-64
2023/04/11 08:01:42;;;;;;;12.00;2.80;;;;;;;14.66;45.73;99083.18;77402;1298;3039912;-65
2023/04/11 08:04:10;;;;;;;5.70;2.60;;;;;;;14.65;46.17;99077.08;79389;1295;3011393;-62
2023/04/11 08:06:38;;;;;;;12.00;3.60;;;;;;;14.62;46.00;99071.14;78348;1296;3026777;-62
2023/04/11 08:09:05;;;;;;;8.40;2.70;;;;;;;14.61;46.08;99067.03;79441;1295;3012746;-64
2023/04/11 08:11:32;;;;;;;6.40;3.40;;;;;;;14.61;46.15;99064.91;79412;1296;3011727;-63
2023/04/11 08:14:05;;;;;;;10.50;2.80;;;;;;;14.65;45.98;99061.75;78164;1295;3049693;-63
2023/04/11 08:16:33;;;;;;;11.30;3.30;;;;;;;14.83;46.25;99064.32;79791;1298;3018693;-59
2023/04/11 08:19:00;;;;;;;8.50;3.10;;;;;;;14.80;46.03;99056.63;79704;1295;3011570;-61
2023/04/11 08:21:27;;;;;;;5.20;2.60;;;;;;;14.84;46.02;99049.41;78562;1295;3052464;-62
2023/04/11 08:23:55;;;;;;;6.80;2.80;;;;;;;15.10;45.22;99042.96;80234;1299;3013320;-61
2023/04/11 08:26:22;;;;;;;6.80;2.70;;;;;;;15.20;45.13;99043.88;79423;1299;3011551;-61
2023/04/11 08:28:57;;;;;;;6.00;3.10;;;;;;;15.20;45.02;99039.83;78270;1299;3050679;-60
2023/04/11 08:31:23;;;;;;;8.80;2.20;;;;;;;15.30;44.96;99035.59;79555;1298;3013536;-61
2023/04/11 08:33:50;;;;;;;8.20;2.70;;;;;;;15.42;44.69;99038.27;79443;1298;3011620;-63
2023/04/11 08:36:18;;;;;;;7.10;2.90;;;;;;;15.53;44.74;99039.39;78173;1298;3028860;-62
2023/04/11 08:38:47;;;;;;;4.30;2.70;;;;;;;15.53;44.76;99027.27;79231;1300;3013339;-62
2023/04/11 08:41:16;;;;;;;16.00;3.70;;;;;;;15.58;44.54;99025.38;78887;1296;3011790;-62
2023/04/11 08:43:45;;;;;;;8.40;2.90;;;;;;;15.54;44.46;99023.64;79299;1301;3013621;-60
2023/04/11 08:46:16;;;;;;;9.40;2.80;;;;;;;15.54;44.57;99013.01;78769;1301;3012863;-62
2023/04/11 08:48:44;;;;;;;9.80;2.80;;;;;;;15.66;44.36;99013.71;79298;1301;3011895;-62
2023/04/11 08:51:19;;;;;;;5.40;2.90;;;;;;;15.72;44.50;99003.14;78869;1300;3011890;-62
2023/04/11 08:53:51;;;;;;;11.40;3.30;;;;;;;15.85;44.35;98994.61;78057;1301;3068259;-62
2023/04/11 08:56:17;;;;;;;5.30;2.50;;;;;;;15.87;44.02;98993.73;79454;1296;3013313;-62
2023/04/11 08:58:44;;;;;;;5.70;2.70;;;;;;;16.05;43.58;98991.75;79238;1297;3013088;-61
2023/04/11 09:01:32;;;;;;;7.10;2.90;;;;;;;16.23;43.40;98986.21;78024;1301;3053587;-62
2023/04/11 09:04:01;;;;;;;10.40;2.80;;;;;;;16.31;42.95;98980.89;78151;1301;3050562;-63
2023/04/11 09:06:38;;;;;;;12.00;3.20;;;;;;;16.23;42.81;98988.30;78057;1301;3051760;-63
2023/04/11 09:09:27;;;;;;;8.00;3.00;;;;;;;16.30;42.86;98987.21;77995;1300;3053271;-62
2023/04/11 09:11:55;;;;;;;7.60;2.40;;;;;;;16.38;42.91;98978.83;78051;1301;3068447;-62
2023/04/11 09:14:25;;;;;;;9.10;2.90;;;;;;;16.39;42.37;98971.33;79196;1298;3013625;-62
2023/04/11 09:17:12;;;;;;;9.90;3.20;;;;;;;16.45;42.22;98964.38;77989;1301;3050028;-62
2023/04/11 09:19:43;;;;;;;6.90;3.00;;;;;;;16.34;42.26;98964.18;77930;1296;3053585;-63
2023/04/11 09:22:10;;;;;;;14.20;2.90;;;;;;;16.31;42.34;98954.23;79220;1301;3011963;-62
2023/04/11 09:24:39;;;;;;;9.30;3.30;;;;;;;16.24;42.50;98960.46;78690;1295;3013440;-64
2023/04/11 09:27:11;;;;;;;7.40;3.10;;;;;;;16.36;42.23;98952.83;79218;1300;3013584;-61
2023/04/11 09:29:41;;;;;;;5.90;2.80;;;;;;;16.41;42.45;98950.48;77970;1297;3052807;-67
2023/04/11 09:32:27;;;;;;;5.60;3.10;;;;;;;16.45;42.29;98948.17;79327;1296;3020835;-63
2023/04/11 09:35:15;;;;;;;9.00;3.20;;;;;;;16.58;41.96;98943.23;77891;1301;3053436;-64
2023/04/11 09:37:46;;;;;;;8.50;3.00;;;;;;;16.54;42.07;98942.73;78233;1295;3050434;-62
2023/04/11 09:40:13;;;;;;;5.70;2.80;;;;;;;16.61;42.16;98932.52;79189;1301;3012936;-62
2023/04/11 09:42:43;;;;;;;5.10;2.50;;;;;;;16.72;41.49;98934.33;78744;1298;3011621;-63
2023/04/11 09:45:20;;;;;;;11.90;3.10;;;;;;;16.78;41.13;98933.92;79228;1301;3014266;-64
2023/04/11 09:47:50;;;;;;;6.50;3.00;;;;;;;16.82;41.47;98929.66;78014;1296;3058032;-62
2023/04/11 09:50:17;;;;;;;10.10;3.10;;;;;;;16.87;41.63;98921.73;79287;1296;3013433;-63
2023/04/11 09:52:44;;;;;;;7.40;2.80;;;;;;;17.04;41.45;98912.90;79291;1300;3011834;-62
2023/04/11 09:55:13;;;;;;;9.40;3.10;;;;;;;17.03;41.31;98918.33;78162;1300;3051857;-62
2023/04/11 09:57:44;;;;;;;10.80;2.70;;;;;;;16.99;41.16;98907.54;79331;1300;3013306;-61
2023/04/11 10:00:17;;;;;;;8.40;3.00;;;;;;;17.02;41.34;98906.74;77949;1298;3068425;-61
2023/04/11 10:02:45;;;;;;;;;;;;;;;17.09;41.24;98894.35;79202;1295;3011554;-60
2023/04/11 10:05:14;;;;;;;12.70;3.00;;;;;;;17.01;40.61;98886.63;78039;1301;3056415;-63
2023/04/11 10:07:57;;;;;;;7.60;3.00;;;;;;;17.00;40.76;98888.21;79205;1298;3013612;-60
2023/04/11 10:10:25;;;;;;;7.10;3.10;;;;;;;17.06;40.26;98882.84;78044;1300;3050437;-62
2023/04/11 10:12:55;;;;;;;5.60;2.70;;;;;;;17.08;40.32;98884.58;79232;1298;3011661;-61
2023/04/11 10:15:24;;;;;;;7.00;2.70;;;;;;;17.11;40.54;98875.12;77942;1301;3026506;-61
2023/04/11 10:18:10;;;;;;;8.70;2.80;;;;;;;17.26;40.72;98863.88;79353;1301;3013473;-62
2023/04/11 10:20:42;;;;;;;5.10;2.40;;;;;;;17.11;40.54;98857.21;78117;1298;3056658;-61
2023/04/11 10:23:09;;;;;;;10.40;2.80;;;;;;;17.05;40.67;98856.59;79431;1295;3016196;-63
2023/04/11 10:26:13;;;;;;;6.70;2.90;;;;;;;17.24;40.45;98855.42;77998;1301;3028336;-62
2023/04/11 10:28:42;;;;;;;4.00;2.80;;;;;;;17.50;40.10;98856.56;77594;1307;3049406;-62
2023/04/11 10:31:16;;;;;;;7.30;2.60;;;;;;;17.63;39.66;98852.48;79131;1298;3013461;-63
2023/04/11 10:34:10;;;;;;;9.40;2.60;;;;;;;17.67;39.68;98852.61;78094;1300;3052076;-59
2023/04/11 10:37:04;;;;;;;8.60;3.00;;;;;;;17.67;39.10;98851.33;77988;1301;3069820;-63
2023/04/11 10:40:07;;;;;;;8.00;2.50;;;;;;;17.79;39.25;98850.16;78048;1301;3052248;-60
2023/04/11 10:42:40;;;;;;;8.00;2.80;;;;;;;17.87;39.00;98833.98;78189;1301;3055767;-63
2023/04/11 10:45:25;;;;;;;4.40;2.40;;;;;;;17.92;38.74;98835.59;79404;1297;3011882;-61
2023/04/11 10:48:04;;;;;;;10.20;2.70;;;;;;;17.81;38.92;98828.15;78103;1301;3053474;-62
2023/04/11 10:50:42;;;;;;;9.00;2.10;;;;;;;17.81;39.06;98830.77;78054;1300;3050824;-62
2023/04/11 10:53:32;;;;;;;8.30;2.70;;;;;;;18.01;38.93;98825.89;79170;1301;3011929;-62
2023/04/11 10:56:00;;;;;;;7.20;2.50;;;;;;;18.06;38.47;98820.41;77958;1299;3055069;-62
2023/04/11 10:58:38;;;;;;;5.40;2.50;;;;;;;18.03;38.46;98820.16;79271;1301;3011690;-61
2023/04/11 11:01:06;;;;;;;8.60;2.20;;;;;;;18.04;38.72;98815.65;78053;1298;3057052;-62
2023/04/11 11:03:34;;;;;;;9.10;2.50;;;;;;;18.20;38.33;98818.19;79232;1298;3013747;-62
2023/04/11 11:06:01;;;;;;;4.50;2.00;;;;;;;18.25;38.66;98810.04;79506;1301;3013562;-62
2023/04/11 11:08:32;;;;;;;12.90;4.10;;;;;;;18.02;38.43;98804.63;78202;1300;3052131;-61
2023/04/11 11:11:03;;;;;;;5.60;2.60;;;;;;;17.93;38.25;98806.96;79305;1301;3013117;-60
2023/04/11 11:13:41;;;;;;;11.20;3.00;;;;;;;17.83;38.68;98800.88;78103;1301;3069458;-61
2023/04/11 11:16:16;;;;;;;8.60;2.60;;;;;;;17.55;38.91;98811.83;78099;1301;3053184;-61
2023/04/11 11:18:47;;;;;;;10.60;2.70;;;;;;;17.41;39.23;98807.69;78796;1295;3011687;-62
2023/04/11 11:21:22;;;;;;;6.70;3.10;;;;;;;17.39;39.42;98816.08;79319;1298;3013118;-58
2023/04/11 11:23:56;;;;;;;4.70;2.50;;;;;;;17.28;39.65;98814.01;78168;1300;3049497;-61
2023/04/11 11:26:42;;;;;;;11.30;2.70;;;;;;;17.16;39.75;98809.16;78657;1295;3013035;-61
2023/04/11 11:29:11;;;;;;;6.70;2.50;;;;;;;16.99;40.35;98811.68;77992;1298;3054085;-60
2023/04/11 11:31:44;;;;;;;8.70;2.90;;;;;;;16.92;40.10;98812.13;79255;1301;3013538;-61